Airfield :
LOGIN :

Register | Disclaimer

   EN    FR    IT 

 










Legend :    VFR   Marginal VFR   IFR   Intensive IFR   Very Intensive IFR
Visi :
Ceiling :
>= 8 km
>= 3000ft
5 to 8 km
1000 to 3000 ft
1500m to 5 km
500 to 1000 ft
800 to 1500m
200 to 500 ft
< 800m
< 200 ft
Symbols :   Thunderstorms  Fog  Heavy snow  Heavy precipitations  Wind > 20 kt
SIGMETs :     Misc.  Thunderstorms  Icing  Turbulence  Mountain Waves  Volcanic Ashes






- Airport Elevation : 1367 ft
- IATA code : FDH


EDNY - Friedrichshafen

CURRENT METAR :
  • 060450Z 24004KT 210V290 6000 OVC003 M01/M01 Q1022

EXPIRED METARs :
  • 060420Z AUTO 24005KT 7000 // OVC003/// M01/M02 Q1022
  • 060350Z AUTO 20004KT 170V230 6000 // OVC003/// M00/M01 Q1022
  • 060320Z AUTO 25005KT 220V280 5000 // OVC003/// M00/M01 Q1022
  • 060250Z AUTO 22004KT 190V250 5000 // OVC003/// M00/M01 Q1022
  • 060220Z AUTO 21004KT 170V290 5000 // OVC003/// 00/M00 Q1022

TAF TAF EDNY
Valid from the 06 at 00:00 until the 07 at 00:00 UTC


052300Z 0600/0624 VRB03KT 4000 BR OVC004
TEMPO 0600/0608 1200 BCFG BKN001
BECMG 0609/0611 24005KT 8000 SCT004
BECMG 0621/0623 24010KT



MET'MAP, your aeronautical weather chart ! - Copyright ORBIFLY December 2007 - Disclaimer

ORBIFLY MET'MAP TEAM :

Programming & Development : Alexandra Zaïnal
Concept & original design : Baudouin d'Aumeries
Assistance for programming : Marc-Olivier Méhu
Technical & hardware support : Manuel Goepfert

Contact : metmap@orbifly.com




SOURCES & CREDITS :

   NOAA